Time;durP1;ratioP1;P1;durP2;ratioP2;P2;SDS_P1;SDS_P2;PMS_P1;PMS_P2;Temp;Humidity;BMP_temperature;BMP_pressure;BME280_temperature;BME280_humidity;BME280_pressure;Samples;Min_cycle;Max_cycle;Signal;HPM_P1;HPM_P2
2023/10/02 04:46:24;;;;;;;34.65;27.90;;;14.90;99.90;;;;;;5921346;23;20026;-83
2023/10/02 04:48:59;;;;;;;45.00;28.08;;;14.90;99.90;;;;;;4941354;28;20063;-83
2023/10/02 04:51:28;;;;;;;32.70;26.52;;;14.90;99.90;;;;;;4926179;29;20083;-83
2023/10/02 04:53:57;;;;;;;40.13;26.65;;;14.90;99.90;;;;;;4923958;29;20031;-83
2023/10/02 04:56:24;;;;;;;34.10;25.38;;;14.80;99.90;;;;;;4937236;29;20039;-83
2023/10/02 04:58:51;;;;;;;47.08;29.75;;;14.80;99.90;;;;;;4918345;29;20094;-83
2023/10/02 05:01:35;;;;;;;33.53;26.38;;;14.80;99.90;;;;;;4919379;29;20058;-83
2023/10/02 05:04:04;;;;;;;50.10;30.05;;;14.80;99.90;;;;;;4922123;29;20078;-83
2023/10/02 05:11:55;;;;;;;49.10;30.13;;;14.70;99.90;;;;;;4955675;29;20061;-83
2023/10/02 05:14:29;;;;;;;38.45;27.95;;;14.70;99.90;;;;;;4911469;29;20043;-82
2023/10/02 05:17:17;;;;;;;40.72;28.05;;;14.60;99.90;;;;;;4944245;28;20047;-83
2023/10/02 05:19:56;;;;;;;43.53;27.83;;;14.60;99.90;;;;;;4935489;29;20047;-83
2023/10/02 05:22:27;;;;;;;40.15;27.77;;;14.60;99.90;;;;;;4920238;29;20050;-83
2023/10/02 05:25:04;;;;;;;43.55;28.52;;;14.50;99.90;;;;;;4918609;29;20082;-83
2023/10/02 05:27:31;;;;;;;44.75;28.55;;;14.50;99.90;;;;;;4946530;28;20039;-82
2023/10/02 05:30:01;;;;;;;40.83;29.67;;;14.50;99.90;;;;;;4932249;29;20682;-85
2023/10/02 05:32:31;;;;;;;49.42;32.85;;;14.50;99.90;;;;;;4923282;29;20098;-84
2023/10/02 05:35:05;;;;;;;41.25;27.02;;;14.50;99.90;;;;;;4923312;29;20514;-87
2023/10/02 05:37:40;;;;;;;37.90;25.17;;;14.50;99.90;;;;;;4945784;29;20122;-85
2023/10/02 05:40:53;;;;;;;49.97;29.02;;;14.50;99.90;;;;;;4950626;28;20035;-84
2023/10/02 05:48:15;;;;;;;39.67;27.42;;;14.40;99.90;;;;;;4936787;29;20581;-85
2023/10/02 05:50:48;;;;;;;38.25;27.08;;;14.50;99.90;;;;;;4931320;29;20043;-84
2023/10/02 05:53:25;;;;;;;39.90;27.05;;;14.50;99.90;;;;;;4933032;29;20502;-84
2023/10/02 05:56:04;;;;;;;42.55;28.27;;;14.50;99.90;;;;;;4936721;29;20055;-85
2023/10/02 05:58:33;;;;;;;46.60;28.05;;;14.50;99.90;;;;;;4921956;29;20126;-84
2023/10/02 06:01:04;;;;;;;41.85;27.67;;;14.50;99.90;;;;;;4916605;29;20039;-84
2023/10/02 06:03:34;;;;;;;39.70;26.35;;;14.50;99.90;;;;;;4933686;29;20035;-84
2023/10/02 06:06:23;;;;;;;38.30;26.80;;;14.50;99.90;;;;;;4936914;28;20051;-83
2023/10/02 06:09:00;;;;;;;38.97;27.77;;;14.50;99.90;;;;;;4962277;28;20051;-84
2023/10/02 06:11:27;;;;;;;42.30;28.13;;;14.50;99.90;;;;;;4922577;29;20050;-83
2023/10/02 06:14:10;;;;;;;47.95;28.77;;;14.50;99.90;;;;;;4921380;29;20039;-86
2023/10/02 06:16:38;;;;;;;41.70;27.02;;;14.60;99.90;;;;;;4927556;29;20050;-86
2023/10/02 06:19:16;;;;;;;40.97;27.77;;;14.60;99.90;;;;;;4908038;29;20509;-86
2023/10/02 06:21:46;;;;;;;48.63;28.80;;;14.60;99.90;;;;;;4930330;29;20046;-86
2023/10/02 06:24:16;;;;;;;45.83;28.70;;;14.70;99.90;;;;;;4922501;29;20043;-86
2023/10/02 06:26:57;;;;;;;40.00;27.08;;;14.70;99.90;;;;;;4922053;29;20039;-87
2023/10/02 06:29:32;;;;;;;42.03;28.33;;;14.80;99.90;;;;;;4936419;29;20529;-86
2023/10/02 06:32:19;;;;;;;43.83;28.38;;;14.80;99.90;;;;;;4916505;29;20043;-87
2023/10/02 06:34:47;;;;;;;43.20;28.65;;;14.90;99.90;;;;;;4917355;29;20081;-86
2023/10/02 06:37:18;;;;;;;44.35;28.80;;;15.00;99.90;;;;;;4934444;29;20130;-87
2023/10/02 06:39:45;;;;;;;42.22;27.17;;;15.00;99.90;;;;;;4932088;29;20102;-87
2023/10/02 06:42:16;;;;;;;59.10;31.45;;;15.00;99.90;;;;;;4925983;29;20043;-87
2023/10/02 06:44:52;;;;;;;38.03;27.40;;;15.10;99.90;;;;;;4937946;29;20039;-87
2023/10/02 06:47:23;;;;;;;47.55;30.42;;;15.20;99.90;;;;;;4922092;29;20401;-87
2023/10/02 06:49:52;;;;;;;43.30;29.63;;;15.20;99.90;;;;;;4933076;29;20123;-87
2023/10/02 06:52:20;;;;;;;39.75;28.88;;;15.30;99.90;;;;;;4916717;29;20043;-87
2023/10/02 06:54:49;;;;;;;54.70;32.97;;;15.40;99.90;;;;;;4930074;29;20087;-87
2023/10/02 06:57:20;;;;;;;44.03;28.80;;;15.60;99.90;;;;;;4937726;29;20086;-86
2023/10/02 06:59:53;;;;;;;46.40;30.77;;;15.70;99.90;;;;;;4921844;29;20035;-88
2023/10/02 07:02:23;;;;;;;;;;;15.80;99.90;;;;;;4921727;29;20118;-86
2023/10/02 07:04:50;;;;;;;42.97;27.85;;;15.90;99.90;;;;;;4930298;29;20381;-86
2023/10/02 07:07:20;;;;;;;35.17;23.52;;;15.90;99.90;;;;;;4937495;29;20042;-87
2023/10/02 07:09:48;;;;;;;36.97;25.42;;;16.10;99.90;;;;;;4931787;29;20040;-86
2023/10/02 07:12:13;;;;;;;34.05;24.05;;;16.10;99.90;;;;;;4909940;29;20050;-86
2023/10/02 07:14:45;;;;;;;35.25;24.90;;;16.20;99.90;;;;;;4937345;29;20521;-86
2023/10/02 07:17:17;;;;;;;38.47;25.88;;;16.20;99.90;;;;;;4936475;29;20050;-86
2023/10/02 07:19:48;;;;;;;37.85;25.50;;;16.10;99.90;;;;;;4929502;29;20027;-86
2023/10/02 07:22:24;;;;;;;40.47;27.27;;;16.20;99.90;;;;;;4921640;29;20533;-87
2023/10/02 07:24:55;;;;;;;36.60;25.20;;;16.20;99.90;;;;;;4937016;29;20497;-87
2023/10/02 07:27:24;;;;;;;35.67;24.55;;;16.20;99.90;;;;;;4928212;29;20047;-86
2023/10/02 07:29:56;;;;;;;33.00;23.90;;;16.20;99.90;;;;;;4921238;29;20046;-84
2023/10/02 07:32:27;;;;;;;36.58;25.70;;;16.30;99.90;;;;;;4921602;29;20113;-86
2023/10/02 07:34:55;;;;;;;33.03;23.05;;;16.30;99.90;;;;;;4913183;29;20035;-86
2023/10/02 07:37:22;;;;;;;33.65;24.65;;;16.30;99.90;;;;;;4920863;29;20047;-87
2023/10/02 07:39:56;;;;;;;34.38;25.75;;;16.30;99.90;;;;;;4937045;29;20094;-86
2023/10/02 07:42:34;;;;;;;35.92;25.92;;;16.40;99.90;;;;;;4921174;29;20047;-86
2023/10/02 07:45:24;;;;;;;31.35;23.00;;;16.40;99.90;;;;;;4912624;29;20066;-86
2023/10/02 07:48:10;;;;;;;33.45;23.95;;;16.50;99.90;;;;;;4961831;28;20046;-85
2023/10/02 07:50:41;;;;;;;34.65;25.25;;;16.50;99.90;;;;;;4921158;29;20046;-86
2023/10/02 07:53:08;;;;;;;30.77;24.20;;;16.50;99.90;;;;;;4921078;29;20126;-86
2023/10/02 07:55:42;;;;;;;34.00;25.17;;;16.50;99.90;;;;;;4920675;29;20039;-86
2023/10/02 07:58:09;;;;;;;34.15;25.35;;;16.60;99.90;;;;;;4920395;29;20054;-86
2023/10/02 08:00:40;;;;;;;37.05;25.17;;;16.60;99.90;;;;;;4968703;28;20522;-87
2023/10/02 08:05:58;;;;;;;32.80;24.27;;;16.70;99.90;;;;;;4936728;29;20051;-86
2023/10/02 08:08:33;;;;;;;32.97;24.58;;;16.80;99.90;;;;;;4921050;29;20043;-86
2023/10/02 08:11:06;;;;;;;32.60;24.48;;;16.80;99.90;;;;;;4921224;29;20183;-86
2023/10/02 08:13:36;;;;;;;35.53;25.50;;;16.90;99.90;;;;;;4912288;29;20044;-86
2023/10/02 08:16:11;;;;;;;35.47;24.98;;;16.90;99.90;;;;;;4936434;29;20050;-86
2023/10/02 08:18:57;;;;;;;35.78;25.95;;;17.00;99.90;;;;;;4920961;29;20051;-85
2023/10/02 08:21:34;;;;;;;32.55;24.02;;;17.00;99.90;;;;;;4940028;29;20054;-86
2023/10/02 08:24:03;;;;;;;32.33;24.70;;;17.10;99.90;;;;;;4940767;29;20047;-86
2023/10/02 08:26:39;;;;;;;36.67;26.58;;;17.20;99.90;;;;;;4940082;28;20039;-86
2023/10/02 08:29:09;;;;;;;36.08;26.55;;;17.40;99.90;;;;;;4933264;29;20054;-86
2023/10/02 08:31:42;;;;;;;37.63;27.80;;;17.50;99.90;;;;;;4939567;29;20516;-85
2023/10/02 08:34:12;;;;;;;34.13;24.48;;;17.70;99.90;;;;;;4924559;29;20047;-86
2023/10/02 08:36:39;;;;;;;35.08;26.60;;;18.00;99.90;;;;;;4931095;29;20035;-86
2023/10/02 08:39:05;;;;;;;34.25;25.42;;;18.10;99.90;;;;;;4923866;29;20047;-85
2023/10/02 08:41:31;;;;;;;37.50;27.67;;;18.20;99.90;;;;;;4940084;29;20047;-86
2023/10/02 08:44:00;;;;;;;41.38;28.70;;;18.20;99.90;;;;;;4924155;29;20482;-86
2023/10/02 08:46:26;;;;;;;38.55;28.98;;;18.40;99.90;;;;;;4939813;28;20039;-86
2023/10/02 08:48:55;;;;;;;37.00;26.83;;;18.50;99.90;;;;;;4923383;29;20085;-87
2023/10/02 08:51:29;;;;;;;39.47;29.42;;;18.60;99.90;;;;;;4964051;28;20632;-86
2023/10/02 08:53:58;;;;;;;35.65;27.42;;;18.70;99.90;;;;;;4940230;29;20042;-86
2023/10/02 08:56:40;;;;;;;38.58;27.77;;;18.80;99.90;;;;;;4939549;28;20035;-85
2023/10/02 08:59:18;;;;;;;36.63;27.20;;;18.90;99.90;;;;;;4939987;29;20122;-86
2023/10/02 09:01:48;;;;;;;40.05;28.33;;;19.00;99.90;;;;;;4924030;29;20124;-86
2023/10/02 09:06:58;;;;;;;41.33;30.17;;;19.10;99.90;;;;;;4939672;29;20051;-86
2023/10/02 09:09:36;;;;;;;39.15;28.77;;;19.20;99.90;;;;;;4939658;29;20043;-86
2023/10/02 09:12:03;;;;;;;42.47;30.98;;;19.30;99.90;;;;;;4923800;29;20043;-85
2023/10/02 09:17:07;;;;;;;43.33;30.92;;;19.40;99.90;;;;;;4939314;29;20051;-85
2023/10/02 09:19:37;;;;;;;39.03;30.40;;;19.40;99.90;;;;;;4920536;29;20448;-85
2023/10/02 09:22:06;;;;;;;39.83;29.67;;;19.50;99.90;;;;;;4918460;29;20040;-86
2023/10/02 09:24:55;;;;;;;38.45;29.42;;;19.60;99.90;;;;;;4939068;29;20391;-86
2023/10/02 09:27:28;;;;;;;39.95;29.63;;;19.80;99.90;;;;;;4922063;29;20035;-86
2023/10/02 09:32:49;;;;;;;40.63;30.25;;;20.40;99.90;;;;;;4938352;29;20043;-86
2023/10/02 09:35:22;;;;;;;44.08;30.20;;;20.70;99.90;;;;;;4939008;29;20043;-86
2023/10/02 09:37:56;;;;;;;40.70;30.40;;;20.80;99.90;;;;;;4923157;29;20061;-86
2023/10/02 09:40:28;;;;;;;46.10;33.70;;;21.00;99.90;;;;;;4923550;29;20039;-85
2023/10/02 09:43:03;;;;;;;39.10;29.65;;;21.10;99.90;;;;;;4930552;29;20031;-86
2023/10/02 09:45:31;;;;;;;44.53;32.55;;;21.10;99.90;;;;;;4923046;29;20047;-85
2023/10/02 09:47:59;;;;;;;42.88;31.73;;;21.00;99.90;;;;;;4938814;29;20098;-86
2023/10/02 09:50:29;;;;;;;42.38;30.58;;;21.00;99.90;;;;;;4923031;29;20125;-85
2023/10/02 09:53:08;;;;;;;40.80;30.33;;;21.00;99.90;;;;;;4930019;29;20043;-85
2023/10/02 09:55:50;;;;;;;41.05;29.67;;;20.90;99.90;;;;;;4914404;29;20086;-85
2023/10/02 09:58:28;;;;;;;40.13;30.55;;;20.80;99.90;;;;;;4922922;29;20098;-86
2023/10/02 10:01:35;;;;;;;48.25;32.92;;;20.70;99.90;;;;;;4922836;29;20135;-85
2023/10/02 10:04:08;;;;;;;44.47;32.97;;;20.70;99.90;;;;;;4859268;29;20046;-85
2023/10/02 10:06:48;;;;;;;47.00;33.13;;;20.80;99.90;;;;;;4830190;29;20041;-85
2023/10/02 10:11:45;;;;;;;41.70;31.20;;;21.00;99.90;;;;;;4938584;29;20050;-85
2023/10/02 10:14:40;;;;;;;42.78;33.28;;;21.00;99.90;;;;;;4922614;29;20047;-86
2023/10/02 10:17:49;;;;;;;43.08;32.72;;;21.00;99.90;;;;;;4929540;29;20050;-85
2023/10/02 10:20:25;;;;;;;45.58;33.10;;;21.10;99.90;;;;;;4918994;29;20048;-85
2023/10/02 10:22:55;;;;;;;38.05;29.35;;;21.50;99.90;;;;;;4903731;29;20482;-85
2023/10/02 10:27:54;;;;;;;38.33;29.52;;;21.90;99.90;;;;;;4923052;29;20043;-85
2023/10/02 10:30:31;;;;;;;38.65;28.52;;;22.00;99.90;;;;;;4935064;29;20043;-85
2023/10/02 10:35:57;;;;;;;35.90;26.48;;;22.10;99.90;;;;;;4936856;29;20512;-86
2023/10/02 10:38:36;;;;;;;36.50;26.83;;;22.00;99.90;;;;;;4938217;29;20176;-85
2023/10/02 10:41:31;;;;;;;35.72;27.48;;;21.90;99.90;;;;;;4922229;29;20520;-85
2023/10/02 10:43:57;;;;;;;35.97;26.55;;;22.00;99.90;;;;;;4937366;29;20043;-86
